Terminal Aerodrome Forecast
Issued by NWS

Home | Current Version | Previous Version | Text Only | Print | Product List | Glossary On
Versions: 1 2 3 4 5 6 7 8 9 10 11 12 13 14 15 16 17 18 19 20 21 22 23 24
715
FTUS41 KGYX 260226 AAB
TAFHIE
TAF AMD
KHIE 260226Z 2602/2624 VRB03KT 4SM BR SCT002
     FM260300 00000KT P6SM FEW250
     FM261200 VRB03KT P6SM BKN250
     FM261900 11004KT P6SM OVC040
     FM262300 VRB03KT 3SM -SN BR OVC015=

USA.gov is the U.S. government's official web portal to all federal, state and local government web resources and services.